Wetterdaten Neuhaus/Waldnaab

^

Wetter Neuhaus/WN - aktuelle & historische Daten
 
tägl. Zusammenfassung für den 19. April 2019
« minus 1 Tag
plus 1 Tag »
tägl. wöchentl. monatl. jährl.
  Aktuell: Höchstwert: Tiefstwert: Durchschnitt:
Temperatur: 16.1 °C 24.1 °C 2.1 °C 13.5 °C
Taupunkt: 6.0 °C 10.0 °C 2.0 °C 6.2 °C
Luftfeuchte: 51% 99% 34% 67%
Windgeschwindigkeit: 0.0km/h 4.7km/h 0.0km/h 0.1km/h
Windböe: 0.0km/h 11.9km/h - -
Windruhig - - Süd
Druck: 1028.7 hPa 1030.0 hPa 1027.7 hPa -
Niederschlag: 0.0 mm      
Historical Graphs
 
 














tabellarische Daten für den 19. April 2019
Zeit Temperatur Taupunkt Luftdruck Wind Windgeschwindigkeit Windböe Luftfeuchte Regen (pro h) Solar Bedingungen
00:04 6.5 °C 5.5 °C 1027.7 hPa ruhig     93% 0.0 mm 0.00 W/m2
00:09 6.3 °C 5.3 °C 1028.0 hPa ruhig     93% 0.0 mm 0.00 W/m2
00:14 6.2 °C 5.2 °C 1027.7 hPa ruhig     93% 0.0 mm 0.00 W/m2
00:19 6.2 °C 4.2 °C 1028.0 hPa ruhig     87% 0.0 mm 0.00 W/m2
00:24 6.2 °C 4.8 °C 1028.0 hPa ruhig     91% 0.0 mm 0.00 W/m2
00:29 6.1 °C 4.4 °C 1028.0 hPa ruhig     89% 0.0 mm 0.00 W/m2
00:34 6.1 °C 4.9 °C 1028.0 hPa ruhig     92% 0.0 mm 0.00 W/m2
00:39 6.2 °C 4.7 °C 1028.0 hPa ruhig     90% 0.0 mm 0.00 W/m2
00:44 6.2 °C 5.0 °C 1027.7 hPa ruhig     92% 0.0 mm 0.00 W/m2
00:49 6.1 °C 4.9 °C 1028.0 hPa ruhig     92% 0.0 mm 0.00 W/m2
00:54 6.0 °C 5.1 °C 1028.0 hPa ruhig     94% 0.0 mm 0.00 W/m2
00:59 5.8 °C 4.9 °C 1028.0 hPa ruhig     94% 0.0 mm 0.00 W/m2
01:04 5.7 °C 4.2 °C 1028.0 hPa ruhig     90% 0.0 mm 0.00 W/m2
01:09 5.6 °C 4.4 °C 1028.0 hPa ruhig     92% 0.0 mm 0.00 W/m2
01:14 5.5 °C 4.8 °C 1028.0 hPa ruhig     95% 0.0 mm 0.00 W/m2
01:19 5.4 °C 5.0 °C 1028.0 hPa ruhig     97% 0.0 mm 0.00 W/m2
01:24 5.2 °C 4.9 °C 1028.0 hPa ruhig     98% 0.0 mm 0.00 W/m2
01:30 5.0 °C 4.7 °C 1028.0 hPa ruhig     98% 0.0 mm 0.00 W/m2
01:34 4.9 °C 4.3 °C 1028.0 hPa ruhig     96% 0.0 mm 0.00 W/m2
01:39 4.8 °C 3.8 °C 1028.0 hPa ruhig     93% 0.0 mm 0.00 W/m2
01:44 4.8 °C 3.6 °C 1028.0 hPa ruhig     92% 0.0 mm 0.00 W/m2
01:49 4.8 °C 3.9 °C 1028.0 hPa ruhig     94% 0.0 mm 0.00 W/m2
01:54 4.9 °C 3.9 °C 1028.3 hPa ruhig     93% 0.0 mm 0.00 W/m2
01:59 5.0 °C 4.0 °C 1028.0 hPa ruhig     93% 0.0 mm 0.00 W/m2
02:04 5.0 °C 4.3 °C 1028.0 hPa ruhig     95% 0.0 mm 0.00 W/m2
02:09 5.0 °C 4.4 °C 1028.0 hPa ruhig     96% 0.0 mm 0.00 W/m2
02:14 4.8 °C 4.1 °C 1028.0 hPa ruhig     95% 0.0 mm 0.00 W/m2
02:19 4.7 °C 3.7 °C 1028.0 hPa ruhig     93% 0.0 mm 0.00 W/m2
02:24 4.8 °C 3.6 °C 1028.0 hPa ruhig     92% 0.0 mm 0.00 W/m2
02:29 4.8 °C 3.8 °C 1028.0 hPa ruhig     93% 0.0 mm 0.00 W/m2
02:34 4.7 °C 4.1 °C 1028.0 hPa ruhig     96% 0.0 mm 0.00 W/m2
02:39 4.6 °C 4.5 °C 1028.0 hPa ruhig     99% 0.0 mm 0.00 W/m2
02:44 4.6 °C 3.9 °C 1028.0 hPa ruhig     95% 0.0 mm 0.00 W/m2
02:49 4.6 °C 3.6 °C 1028.0 hPa ruhig     93% 0.0 mm 0.00 W/m2
02:54 4.6 °C 3.3 °C 1028.0 hPa ruhig     91% 0.0 mm 0.00 W/m2
02:59 4.6 °C 3.4 °C 1028.0 hPa ruhig     92% 0.0 mm 0.00 W/m2
03:04 4.5 °C 3.6 °C 1028.0 hPa ruhig     94% 0.0 mm 0.00 W/m2
03:10 4.6 °C 3.7 °C 1028.0 hPa ruhig     94% 0.0 mm 0.00 W/m2
03:14 4.7 °C 3.8 °C 1028.3 hPa ruhig     94% 0.0 mm 0.00 W/m2
03:19 4.8 °C 3.8 °C 1028.0 hPa ruhig     93% 0.0 mm 0.00 W/m2
03:24 4.9 °C 3.6 °C 1028.0 hPa ruhig     91% 0.0 mm 0.00 W/m2
03:29 4.9 °C 3.6 °C 1028.0 hPa ruhig     91% 0.0 mm 0.00 W/m2
03:34 4.9 °C 3.4 °C 1028.3 hPa ruhig     90% 0.0 mm 0.00 W/m2
03:39 5.1 °C 3.4 °C 1028.3 hPa ruhig     89% 0.0 mm 0.00 W/m2
03:44 5.3 °C 3.8 °C 1028.0 hPa ruhig     90% 0.0 mm 0.00 W/m2
03:49 5.4 °C 3.9 °C 1028.0 hPa ruhig     90% 0.0 mm 0.00 W/m2
03:54 5.4 °C 4.1 °C 1028.0 hPa ruhig     91% 0.0 mm 0.00 W/m2
03:59 5.3 °C 4.3 °C 1028.3 hPa ruhig     93% 0.0 mm 0.00 W/m2
04:04 5.1 °C 4.4 °C 1028.0 hPa ruhig     95% 0.0 mm 0.00 W/m2
04:10 4.9 °C 4.2 °C 1028.0 hPa ruhig     95% 0.0 mm 0.00 W/m2
04:14 4.7 °C 3.8 °C 1028.0 hPa ruhig     94% 0.0 mm 0.00 W/m2
04:19 4.5 °C 3.5 °C 1028.0 hPa ruhig     93% 0.0 mm 0.00 W/m2
04:24 4.4 °C 3.7 °C 1028.0 hPa ruhig     95% 0.0 mm 0.00 W/m2
04:29 4.3 °C 3.7 °C 1028.3 hPa ruhig     96% 0.0 mm 0.00 W/m2
04:34 4.2 °C 3.8 °C 1028.3 hPa ruhig     97% 0.0 mm 0.00 W/m2
04:39 4.1 °C 3.8 °C 1028.3 hPa ruhig     98% 0.0 mm 0.00 W/m2
04:44 3.9 °C 3.8 °C 1028.3 hPa ruhig     99% 0.0 mm 0.00 W/m2
04:49 3.7 °C 3.6 °C 1028.3 hPa ruhig     99% 0.0 mm 0.00 W/m2
04:54 3.4 °C 3.3 °C 1028.3 hPa ruhig     99% 0.0 mm 0.00 W/m2
04:59 3.2 °C 3.1 °C 1028.0 hPa ruhig     99% 0.0 mm 0.00 W/m2
05:04 3.1 °C 3.0 °C 1028.3 hPa ruhig     99% 0.0 mm 0.00 W/m2
05:09 3.1 °C 3.0 °C 1028.0 hPa ruhig     99% 0.0 mm 0.00 W/m2
05:14 2.9 °C 2.8 °C 1028.3 hPa ruhig     99% 0.0 mm 0.00 W/m2
05:19 2.8 °C 2.7 °C 1028.0 hPa ruhig     99% 0.0 mm 0.00 W/m2
05:24 2.7 °C 2.6 °C 1028.3 hPa ruhig     99% 0.0 mm 0.00 W/m2
05:29 2.6 °C 2.5 °C 1028.3 hPa ruhig     99% 0.0 mm 0.00 W/m2
05:34 2.6 °C 2.5 °C 1028.3 hPa ruhig     99% 0.0 mm 0.00 W/m2
05:39 2.5 °C 2.4 °C 1028.3 hPa ruhig     99% 0.0 mm 0.00 W/m2
05:44 2.4 °C 2.3 °C 1028.3 hPa ruhig     99% 0.0 mm 0.00 W/m2
05:50 2.3 °C 2.2 °C 1028.3 hPa ruhig     99% 0.0 mm 0.00 W/m2
05:54 2.3 °C 2.2 °C 1028.3 hPa ruhig     99% 0.0 mm 0.00 W/m2
05:59 2.3 °C 2.2 °C 1028.7 hPa ruhig     99% 0.0 mm 0.00 W/m2
06:04 2.2 °C 2.1 °C 1028.7 hPa ruhig     99% 0.0 mm 0.00 W/m2
06:09 2.2 °C 2.1 °C 1028.7 hPa ruhig     99% 0.0 mm 0.13 W/m2
06:14 2.1 °C 2.0 °C 1028.7 hPa ruhig     99% 0.0 mm 1.68 W/m2
06:19 2.1 °C 2.0 °C 1029.0 hPa ruhig     99% 0.0 mm 3.59 W/m2
06:24 2.2 °C 2.1 °C 1028.7 hPa ruhig     99% 0.0 mm 5.31 W/m2
06:29 2.3 °C 2.2 °C 1029.0 hPa ruhig     99% 0.0 mm 7.47 W/m2
06:34 2.6 °C 2.3 °C 1029.0 hPa ruhig     98% 0.0 mm 9.74 W/m2
06:39 3.0 °C 2.9 °C 1029.0 hPa ruhig     99% 0.0 mm 11.82 W/m2
06:44 3.3 °C 3.0 °C 1029.0 hPa ruhig     98% 0.0 mm 13.82 W/m2
06:49 3.7 °C 3.3 °C 1029.0 hPa ruhig     97% 0.0 mm 13.99 W/m2
06:54 4.1 °C 3.4 °C 1029.3 hPa ruhig     95% 0.0 mm 17.27 W/m2
06:59 4.3 °C 3.6 °C 1029.3 hPa ruhig     95% 0.0 mm 18.76 W/m2
07:04 4.4 °C 3.8 °C 1029.3 hPa ruhig     96% 0.0 mm 20.08 W/m2
07:09 4.5 °C 4.1 °C 1029.3 hPa ruhig     97% 0.0 mm 21.29 W/m2
07:14 4.5 °C 4.2 °C 1029.0 hPa ruhig     98% 0.0 mm 22.46 W/m2
07:19 4.4 °C 4.3 °C 1029.0 hPa ruhig     99% 0.0 mm 23.56 W/m2
07:24 4.3 °C 4.2 °C 1029.0 hPa ruhig     99% 0.0 mm 24.84 W/m2
07:29 4.1 °C 4.0 °C 1029.3 hPa ruhig     99% 0.0 mm 26.04 W/m2
07:34 4.0 °C 3.9 °C 1029.3 hPa ruhig     99% 0.0 mm 27.25 W/m2
07:39 4.1 °C 3.8 °C 1029.3 hPa ruhig     98% 0.0 mm 28.35 W/m2
07:44 4.3 °C 3.4 °C 1029.3 hPa ruhig     94% 0.0 mm 29.45 W/m2
07:49 4.6 °C 3.7 °C 1029.3 hPa ruhig     94% 0.0 mm 30.52 W/m2
07:54 5.0 °C 3.7 °C 1029.0 hPa ruhig     91% 0.0 mm 31.76 W/m2
07:59 5.6 °C 3.6 °C 1029.3 hPa ruhig     87% 0.0 mm 32.90 W/m2
08:04 6.4 °C 3.9 °C 1029.0 hPa ruhig     84% 0.0 mm 34.11 W/m2
08:09 7.1 °C 4.2 °C 1029.3 hPa ruhig     82% 0.0 mm 35.24 W/m2
08:14 7.9 °C 4.9 °C 1029.3 hPa ruhig     81% 0.0 mm 36.27 W/m2
08:19 8.6 °C 5.4 °C 1029.3 hPa ruhig     80% 0.0 mm 37.52 W/m2
08:24 9.2 °C 5.8 °C 1029.3 hPa ruhig     79% 0.0 mm 38.76 W/m2
08:29 9.7 °C 6.1 °C 1029.3 hPa ruhig     78% 0.0 mm 40.11 W/m2
08:34 10.1 °C 6.1 °C 1029.3 hPa ruhig     76% 0.0 mm 41.39 W/m2
08:39 10.5 °C 6.5 °C 1029.3 hPa ruhig     76% 0.0 mm 42.84 W/m2
08:44 10.8 °C 6.6 °C 1029.3 hPa ruhig     75% 0.0 mm 44.30 W/m2
08:49 11.1 °C 6.5 °C 1029.3 hPa ruhig     73% 0.0 mm 45.15 W/m2
08:54 11.3 °C 6.5 °C 1029.7 hPa ruhig     72% 0.0 mm 46.22 W/m2
08:59 11.6 °C 6.7 °C 1029.3 hPa ruhig     72% 0.0 mm 47.25 W/m2
09:04 11.8 °C 6.9 °C 1029.7 hPa ruhig     72% 0.0 mm 48.24 W/m2
09:09 12.0 °C 7.1 °C 1029.7 hPa ruhig     72% 0.0 mm 48.81 W/m2
09:14 12.2 °C 7.1 °C 1029.7 hPa ruhig     71% 0.0 mm 49.81 W/m2
09:19 12.4 °C 7.1 °C 1029.3 hPa ruhig     70% 0.0 mm 51.01 W/m2
09:24 12.6 °C 7.1 °C 1030.0 hPa ruhig     69% 0.0 mm 51.76 W/m2
09:29 12.7 °C 7.4 °C 1029.7 hPa ruhig     70% 0.0 mm 53.29 W/m2
09:34 12.9 °C 7.2 °C 1029.7 hPa ruhig     68% 0.0 mm 53.64 W/m2
09:39 13.1 °C 7.3 °C 1030.0 hPa ruhig     68% 0.0 mm 55.35 W/m2
09:44 13.3 °C 7.3 °C 1029.7 hPa ruhig     67% 0.0 mm 171.32 W/m2
09:50 13.5 °C 7.1 °C 1029.7 hPa ruhig     65% 0.0 mm 184.08 W/m2
09:54 13.9 °C 7.7 °C 1030.0 hPa ruhig     66% 0.0 mm 196.81 W/m2
09:59 14.3 °C 7.4 °C 1030.0 hPa ruhig     63% 0.0 mm 209.52 W/m2
10:04 14.6 °C 7.9 °C 1030.0 hPa ruhig     64% 0.0 mm 219.12 W/m2
10:09 14.8 °C 7.8 °C 1030.0 hPa ruhig     63% 0.0 mm 232.32 W/m2
10:14 15.1 °C 8.1 °C 1030.0 hPa ruhig     63% 0.0 mm 239.10 W/m2
10:19 15.4 °C 8.2 °C 1030.0 hPa ruhig     62% 0.0 mm 248.12 W/m2
10:24 15.7 °C 8.2 °C 1029.7 hPa ruhig     61% 0.0 mm 262.14 W/m2
10:29 16.0 °C 8.3 °C 1030.0 hPa ruhig     60% 0.0 mm 271.63 W/m2
10:34 16.5 °C 8.2 °C 1029.7 hPa ruhig     58% 0.0 mm 280.98 W/m2
10:39 17.1 °C 8.8 °C 1029.7 hPa ruhig     58% 0.0 mm 293.15 W/m2
10:44 17.6 °C 9.3 °C 1030.0 hPa ruhig     58% 0.0 mm 302.85 W/m2
10:50 18.1 °C 9.2 °C 1030.0 hPa ruhig     56% 0.0 mm 313.19 W/m2
10:54 18.4 °C 9.5 °C 1030.0 hPa ruhig     56% 0.0 mm 323.55 W/m2
10:59 18.7 °C 9.8 °C 1029.7 hPa ruhig     56% 0.0 mm 334.65 W/m2
11:04 18.9 °C 9.7 °C 1030.0 hPa ruhig     55% 0.0 mm 348.35 W/m2
11:09 19.0 °C 10.0 °C 1030.0 hPa ruhig     56% 0.0 mm 360.00 W/m2
11:14 19.1 °C 9.3 °C 1029.7 hPa ruhig     53% 0.0 mm 368.47 W/m2
11:19 19.2 °C 9.4 °C 1029.7 hPa ruhig     53% 0.0 mm 377.99 W/m2
11:24 19.3 °C 9.5 °C 1029.7 hPa South 0.3 km/h 4.0 km/h 53% 0.0 mm 392.94 W/m2
11:30 19.3 °C 9.2 °C 1029.7 hPa ruhig     52% 0.0 mm 400.85 W/m2
11:34 19.4 °C 9.3 °C 1029.7 hPa ruhig     52% 0.0 mm 350.57 W/m2
11:39 19.5 °C 9.4 °C 1029.7 hPa ruhig     52% 0.0 mm 424.19 W/m2
11:44 19.6 °C 8.9 °C 1029.7 hPa SE 0.6 km/h 4.0 km/h 50% 0.0 mm 434.44 W/m2
11:49 19.6 °C 9.2 °C 1029.7 hPa South 4.7 km/h 11.9 km/h 51% 0.0 mm 325.66 W/m2
11:54 19.7 °C 9.3 °C 1029.7 hPa ruhig     51% 0.0 mm 443.87 W/m2
11:59 19.8 °C 9.1 °C 1029.7 hPa ruhig     50% 0.0 mm 455.11 W/m2
12:04 19.9 °C 9.2 °C 1029.7 hPa ruhig     50% 0.0 mm 464.05 W/m2
12:09 19.9 °C 9.2 °C 1029.3 hPa ruhig     50% 0.0 mm 260.01 W/m2
12:14 20.1 °C 9.1 °C 1029.3 hPa ruhig     49% 0.0 mm 478.80 W/m2
12:19 20.2 °C 9.5 °C 1029.7 hPa ruhig     50% 0.0 mm 479.15 W/m2
12:24 20.3 °C 9.3 °C 1029.7 hPa ruhig     49% 0.0 mm 488.46 W/m2
12:30 20.3 °C 9.3 °C 1029.3 hPa ruhig     49% 0.0 mm 494.74 W/m2
12:34 20.4 °C 8.7 °C 1029.3 hPa SSE 1.8 km/h 4.0 km/h 47% 0.0 mm 498.62 W/m2
12:39 20.5 °C 9.1 °C 1029.3 hPa ruhig     48% 0.0 mm 502.39 W/m2
12:44 20.5 °C 9.1 °C 1029.3 hPa ruhig     48% 0.0 mm 493.51 W/m2
12:49 20.6 °C 9.2 °C 1029.3 hPa ruhig     48% 0.0 mm 510.31 W/m2
12:54 20.7 °C 9.0 °C 1029.3 hPa ruhig     47% 0.0 mm 513.58 W/m2
12:59 20.8 °C 8.5 °C 1029.3 hPa SW 0.3 km/h 4.0 km/h 45% 0.0 mm 516.82 W/m2
13:04 20.8 °C 8.1 °C 1029.3 hPa ruhig     44% 0.0 mm 517.08 W/m2
13:09 20.9 °C 7.9 °C 1029.3 hPa ruhig     43% 0.0 mm 521.29 W/m2
13:14 21.0 °C 8.6 °C 1029.3 hPa SSW 2.1 km/h 4.0 km/h 45% 0.0 mm 525.17 W/m2
13:19 21.0 °C 8.3 °C 1029.3 hPa ruhig     44% 0.0 mm 527.04 W/m2
13:24 21.1 °C 8.4 °C 1029.3 hPa ruhig     44% 0.0 mm 535.30 W/m2
13:29 21.2 °C 8.5 °C 1029.3 hPa ESE 1.8 km/h 7.9 km/h 44% 0.0 mm 536.38 W/m2
13:34 21.3 °C 8.6 °C 1029.3 hPa ruhig     44% 0.0 mm 537.87 W/m2
13:39 21.3 °C 8.9 °C 1029.3 hPa SSE 0.3 km/h 4.0 km/h 45% 0.0 mm 539.74 W/m2
13:44 21.4 °C 8.7 °C 1029.3 hPa SE 1.4 km/h 7.9 km/h 44% 0.0 mm 530.16 W/m2
13:49 21.4 °C 8.3 °C 1029.3 hPa ruhig     43% 0.0 mm 543.74 W/m2
13:54 21.5 °C 8.8 °C 1029.3 hPa ruhig     44% 0.0 mm 552.42 W/m2
13:59 21.7 °C 8.9 °C 1029.3 hPa ruhig     44% 0.0 mm 545.61 W/m2
14:04 21.7 °C 9.6 °C 1029.0 hPa ruhig     46% 0.0 mm 545.79 W/m2
14:10 21.8 °C 9.4 °C 1029.0 hPa ruhig     45% 0.0 mm 550.43 W/m2
14:14 21.9 °C 8.4 °C 1029.0 hPa ruhig     42% 0.0 mm 555.25 W/m2
14:19 22.0 °C 9.2 °C 1029.0 hPa ruhig     44% 0.0 mm 552.56 W/m2
14:24 22.1 °C 9.6 °C 1029.3 hPa ruhig     45% 0.0 mm 555.66 W/m2
14:29 22.2 °C 9.4 °C 1029.0 hPa ruhig     44% 0.0 mm 551.48 W/m2
14:34 22.2 °C 9.1 °C 1029.0 hPa East 0.3 km/h 4.0 km/h 43% 0.0 mm 558.11 W/m2
14:39 22.3 °C 9.1 °C 1029.0 hPa ruhig     43% 0.0 mm 556.48 W/m2
14:44 22.4 °C 9.2 °C 1029.0 hPa ruhig     43% 0.0 mm 553.53 W/m2
14:49 22.5 °C 8.6 °C 1029.0 hPa SSW 0.6 km/h 4.0 km/h 41% 0.0 mm 556.68 W/m2
14:54 22.5 °C 8.6 °C 1029.0 hPa ruhig     41% 0.0 mm 554.69 W/m2
14:59 22.5 °C 8.6 °C 1029.0 hPa ruhig     41% 0.0 mm 563.08 W/m2
15:04 22.7 °C 8.1 °C 1028.7 hPa ruhig     39% 0.0 mm 559.86 W/m2
15:09 22.8 °C 8.2 °C 1029.0 hPa ruhig     39% 0.0 mm 562.32 W/m2
15:14 22.8 °C 8.2 °C 1029.0 hPa ruhig     39% 0.0 mm 554.69 W/m2
15:19 22.9 °C 8.6 °C 1028.7 hPa ruhig     40% 0.0 mm 550.87 W/m2
15:24 23.0 °C 7.9 °C 1029.0 hPa ruhig     38% 0.0 mm 549.67 W/m2
15:30 23.2 °C 8.1 °C 1028.7 hPa ruhig     38% 0.0 mm 546.05 W/m2
15:34 23.3 °C 7.8 °C 1028.7 hPa ruhig     37% 0.0 mm 539.45 W/m2
15:39 23.5 °C 8.0 °C 1028.7 hPa ruhig     37% 0.0 mm 541.73 W/m2
15:44 23.6 °C 8.1 °C 1028.7 hPa ruhig     37% 0.0 mm 541.70 W/m2
15:49 23.7 °C 8.6 °C 1028.3 hPa ruhig     38% 0.0 mm 542.25 W/m2
15:54 23.8 °C 8.3 °C 1028.7 hPa ruhig     37% 0.0 mm 535.80 W/m2
15:59 23.8 °C 8.7 °C 1028.7 hPa ruhig     38% 0.0 mm 533.43 W/m2
16:04 23.7 °C 7.4 °C 1028.3 hPa ruhig     35% 0.0 mm 528.82 W/m2
16:09 23.8 °C 7.0 °C 1028.7 hPa ruhig     34% 0.0 mm 526.43 W/m2
16:14 23.8 °C 7.5 °C 1028.3 hPa ruhig     35% 0.0 mm 430.85 W/m2
16:19 23.8 °C 7.9 °C 1028.7 hPa ruhig     36% 0.0 mm 514.37 W/m2
16:24 23.8 °C 7.9 °C 1028.3 hPa ruhig     36% 0.0 mm 510.28 W/m2
16:30 23.9 °C 8.4 °C 1028.7 hPa ruhig     37% 0.0 mm 506.07 W/m2
16:34 23.9 °C 8.0 °C 1028.3 hPa ruhig     36% 0.0 mm 502.57 W/m2
16:39 23.9 °C 8.0 °C 1028.3 hPa ruhig     36% 0.0 mm 494.19 W/m2
16:44 23.9 °C 7.1 °C 1028.3 hPa ruhig     34% 0.0 mm 497.16 W/m2
16:49 24.0 °C 7.2 °C 1028.3 hPa ruhig     34% 0.0 mm 489.86 W/m2
16:54 24.0 °C 7.6 °C 1028.3 hPa ruhig     35% 0.0 mm 488.90 W/m2
16:59 24.0 °C 7.2 °C 1028.3 hPa ruhig     34% 0.0 mm 482.74 W/m2
17:04 24.0 °C 7.6 °C 1028.3 hPa ruhig     35% 0.0 mm 476.26 W/m2
17:09 24.1 °C 8.1 °C 1028.3 hPa ruhig     36% 0.0 mm 471.23 W/m2
17:14 24.1 °C 8.5 °C 1028.7 hPa ruhig     37% 0.0 mm 459.55 W/m2
17:19 24.1 °C 8.5 °C 1028.3 hPa ruhig     37% 0.0 mm 448.28 W/m2
17:24 24.1 °C 8.5 °C 1028.3 hPa ruhig     37% 0.0 mm 438.91 W/m2
17:29 24.0 °C 8.0 °C 1028.3 hPa ruhig     36% 0.0 mm 428.30 W/m2
17:34 23.9 °C 8.7 °C 1028.3 hPa ruhig     38% 0.0 mm 423.05 W/m2
17:39 23.6 °C 8.5 °C 1028.3 hPa ruhig     38% 0.0 mm 418.29 W/m2
17:44 23.5 °C 8.8 °C 1028.7 hPa ruhig     39% 0.0 mm 410.58 W/m2
17:49 23.4 °C 7.9 °C 1028.7 hPa ruhig     37% 0.0 mm 402.84 W/m2
17:54 23.3 °C 7.8 °C 1028.7 hPa ruhig     37% 0.0 mm 388.53 W/m2
17:59 23.1 °C 7.6 °C 1028.3 hPa ruhig     37% 0.0 mm 373.08 W/m2
18:04 23.0 °C 7.9 °C 1028.3 hPa ruhig     38% 0.0 mm 339.67 W/m2
18:09 22.9 °C 7.5 °C 1028.3 hPa ruhig     37% 0.0 mm 357.02 W/m2
18:14 22.8 °C 7.8 °C 1028.3 hPa ruhig     38% 0.0 mm 276.01 W/m2
18:19 22.5 °C 7.5 °C 1028.3 hPa ruhig     38% 0.0 mm 207.82 W/m2
18:24 22.3 °C 7.3 °C 1028.7 hPa ruhig     38% 0.0 mm 192.84 W/m2
18:29 22.1 °C 7.5 °C 1028.3 hPa ruhig     39% 0.0 mm 139.34 W/m2
18:34 21.9 °C 7.3 °C 1028.3 hPa ruhig     39% 0.0 mm 120.42 W/m2
18:39 21.6 °C 7.1 °C 1028.3 hPa ruhig     39% 0.0 mm 148.45 W/m2
18:44 21.4 °C 6.9 °C 1028.3 hPa ruhig     39% 0.0 mm 103.22 W/m2
18:49 21.1 °C 7.0 °C 1028.3 hPa ruhig     40% 0.0 mm 91.60 W/m2
18:54 20.8 °C 6.4 °C 1028.3 hPa ruhig     39% 0.0 mm 80.41 W/m2
18:59 20.5 °C 6.5 °C 1028.3 hPa ruhig     40% 0.0 mm 87.83 W/m2
19:04 20.2 °C 6.2 °C 1028.3 hPa ruhig     40% 0.0 mm 53.75 W/m2
19:09 20.0 °C 6.4 °C 1028.3 hPa ruhig     41% 0.0 mm 89.14 W/m2
19:14 19.7 °C 6.1 °C 1028.3 hPa West 0.3 km/h 4.0 km/h 41% 0.0 mm 76.05 W/m2
19:19 19.5 °C 5.9 °C 1028.3 hPa ruhig     41% 0.0 mm 67.03 W/m2
19:24 19.4 °C 5.5 °C 1028.3 hPa ruhig     40% 0.0 mm 82.98 W/m2
19:29 19.2 °C 5.7 °C 1028.3 hPa ruhig     41% 0.0 mm 57.23 W/m2
19:34 19.1 °C 5.6 °C 1028.7 hPa ruhig     41% 0.0 mm 68.42 W/m2
19:39 19.0 °C 5.5 °C 1028.7 hPa ruhig     41% 0.0 mm 58.29 W/m2
19:44 18.9 °C 5.4 °C 1028.7 hPa ruhig     41% 0.0 mm 34.46 W/m2
19:49 18.8 °C 5.3 °C 1028.7 hPa ruhig     41% 0.0 mm 23.98 W/m2
19:54 18.6 °C 5.5 °C 1028.7 hPa ruhig     42% 0.0 mm 13.22 W/m2
19:59 18.3 °C 5.5 °C 1028.7 hPa ruhig     43% 0.0 mm 7.43 W/m2
20:04 18.0 °C 5.6 °C 1028.7 hPa ruhig     44% 0.0 mm 4.83 W/m2
20:09 17.7 °C 5.6 °C 1028.7 hPa ruhig     45% 0.0 mm 2.39 W/m2
20:14 17.3 °C 5.6 °C 1028.7 hPa ruhig     46% 0.0 mm 0.53 W/m2
20:19 16.9 °C 5.8 °C 1029.0 hPa ruhig     48% 0.0 mm 0.00 W/m2
20:24 16.4 °C 5.7 °C 1028.7 hPa ruhig     49% 0.0 mm 0.00 W/m2
20:29 16.1 °C 6.0 °C 1028.7 hPa ruhig     51% 0.0 mm 0.00 W/m2
Neuhaus/WN - Oberpfalz